Time;durP1;ratioP1;P1;durP2;ratioP2;P2;SDS_P1;SDS_P2;PMS_P1;PMS_P2;Temp;Humidity;BMP_temperature;BMP_pressure;BME280_temperature;BME280_humidity;BME280_pressure;Samples;Min_cycle;Max_cycle;Signal;HPM_P1;HPM_P2
2021/09/20 00:00:11;;;;;;;;;2.25;2.00;;;;;20.08;60.51;101178.13;2091701;28;47076;-47
2021/09/20 00:01:11;;;;;;;;;1.25;1.25;;;;;20.06;60.46;101185.41;2091326;28;46830;-49
2021/09/20 00:02:12;;;;;;;;;2.00;1.33;;;;;20.07;60.36;101184.44;2087975;28;47261;-48
2021/09/20 00:03:12;;;;;;;;;0.00;0.00;;;;;20.06;60.47;101188.09;2087939;28;46146;-50
2021/09/20 00:04:12;;;;;;;;;0.67;0.67;;;;;20.06;60.58;101188.09;2091448;28;45830;-49
2021/09/20 00:05:13;;;;;;;;;1.67;1.67;;;;;20.07;60.66;101186.28;2091796;28;47948;-50
2021/09/20 00:06:14;;;;;;;;;0.00;0.00;;;;;20.05;60.77;101180.97;2092055;28;47503;-50
2021/09/20 00:07:14;;;;;;;;;1.67;1.67;;;;;20.05;60.78;101189.06;2091889;28;45387;-48
2021/09/20 00:08:15;;;;;;;;;0.67;0.67;;;;;20.05;60.58;101188.19;2092060;28;48270;-48
2021/09/20 00:09:15;;;;;;;;;0.00;0.00;;;;;20.04;60.38;101186.44;2092009;28;45285;-49
2021/09/20 00:10:16;;;;;;;;;2.33;2.33;;;;;20.02;60.59;101185.66;2092061;28;47140;-51
2021/09/20 00:11:17;;;;;;;;;0.00;0.00;;;;;20.02;60.41;101180.28;2087217;28;47547;-50
2021/09/20 00:12:18;;;;;;;;;1.75;1.75;;;;;20.01;60.54;101186.63;2091978;28;48480;-49
2021/09/20 00:13:18;;;;;;;;;2.33;2.33;;;;;20.01;60.65;101187.50;2091420;28;46986;-52
2021/09/20 00:14:19;;;;;;;;;1.00;1.00;;;;;20.00;60.59;101183.06;2091354;28;48217;-53
2021/09/20 00:15:19;;;;;;;;;1.00;1.00;;;;;20.01;60.82;101189.31;2091582;28;46794;-51
2021/09/20 00:16:20;;;;;;;;;3.00;1.00;;;;;19.99;60.83;101187.56;2090893;28;48076;-51
2021/09/20 00:17:20;;;;;;;;;0.33;0.33;;;;;19.95;60.34;101183.31;2091469;28;46136;-52
2021/09/20 00:18:21;;;;;;;;;1.00;1.00;;;;;19.90;60.59;101185.34;2092154;28;47531;-52
2021/09/20 00:19:21;;;;;;;;;1.00;1.00;;;;;19.88;60.95;101176.50;2091520;28;47327;-52
2021/09/20 00:20:22;;;;;;;;;1.00;1.00;;;;;19.88;60.81;101181.00;2091930;28;47492;-48
2021/09/20 00:21:24;;;;;;;;;4.00;2.00;;;;;19.88;61.18;101189.09;2090658;28;47180;-53
2021/09/20 00:22:24;;;;;;;;;1.50;1.00;;;;;19.89;61.21;101186.31;2093516;28;46391;-52
2021/09/20 00:23:25;;;;;;;;;2.00;2.00;;;;;19.88;60.95;101183.72;2091615;27;47410;-51
2021/09/20 00:24:25;;;;;;;;;0.33;0.00;;;;;19.87;61.41;101184.66;2089813;28;46926;-50
2021/09/20 00:25:26;;;;;;;;;2.00;2.00;;;;;19.84;61.34;101182.13;2091472;28;48067;-50
2021/09/20 00:26:26;;;;;;;;;1.00;1.00;;;;;19.82;61.60;101181.31;2085502;28;48758;-51
2021/09/20 00:27:27;;;;;;;;;1.00;1.00;;;;;19.83;61.60;101180.41;2091276;28;47257;-49
2021/09/20 00:28:28;;;;;;;;;1.33;1.33;;;;;19.82;61.28;101181.31;2091749;28;47172;-51
2021/09/20 00:29:28;;;;;;;;;1.00;1.00;;;;;19.80;61.24;101180.53;2091535;28;46839;-49
2021/09/20 00:30:29;;;;;;;;;0.67;0.67;;;;;19.78;61.38;101185.13;2091781;28;45599;-51
2021/09/20 00:31:29;;;;;;;;;1.67;1.00;;;;;19.78;61.83;101179.75;2091936;28;48309;-51
2021/09/20 00:32:30;;;;;;;;;1.00;1.00;;;;;19.79;61.67;101176.97;2091703;28;47038;-52
2021/09/20 00:33:31;;;;;;;;;1.00;1.00;;;;;19.79;61.46;101185.06;2091713;28;47059;-51
2021/09/20 00:34:31;;;;;;;;;1.00;1.00;;;;;19.78;61.67;101175.22;2092257;28;47076;-49
2021/09/20 00:35:32;;;;;;;;;2.00;2.00;;;;;19.78;61.73;101182.44;2091583;28;48230;-51
2021/09/20 00:36:32;;;;;;;;;0.33;0.33;;;;;19.78;61.80;101183.31;2088519;28;45549;-50
2021/09/20 00:37:33;;;;;;;;;0.33;0.33;;;;;19.78;61.95;101177.06;2091073;28;47889;-51
2021/09/20 00:38:34;;;;;;;;;2.00;2.00;;;;;19.78;61.88;101169.84;2091052;28;48674;-52
2021/09/20 00:39:34;;;;;;;;;1.33;1.33;;;;;19.80;61.94;101173.31;2082747;28;47237;-49
2021/09/20 00:40:35;;;;;;;;;1.00;1.00;;;;;19.80;61.72;101180.53;2091087;28;47391;-50
2021/09/20 00:41:35;;;;;;;;;1.67;1.67;;;;;19.80;62.09;101170.63;2087520;28;47210;-51
2021/09/20 00:42:36;;;;;;;;;2.00;1.00;;;;;19.80;61.50;101176.03;2091177;28;48354;-55
2021/09/20 00:43:37;;;;;;;;;2.00;2.00;;;;;19.80;61.73;101173.31;2087838;28;45577;-51
2021/09/20 00:44:37;;;;;;;;;2.00;2.00;;;;;19.82;61.46;101175.94;2089875;28;46859;-50
2021/09/20 00:45:38;;;;;;;;;3.00;1.00;;;;;19.83;62.07;101175.00;2089310;28;47408;-50
2021/09/20 00:46:38;;;;;;;;;2.00;2.00;;;;;19.83;62.03;101178.56;2091526;28;47571;-52
2021/09/20 00:47:39;;;;;;;;;1.33;1.33;;;;;19.84;61.60;101177.63;2091162;28;47000;-51
2021/09/20 00:48:39;;;;;;;;;2.00;2.00;;;;;19.84;61.85;101174.94;2082778;28;47964;-52
2021/09/20 00:49:40;;;;;;;;;0.00;0.00;;;;;19.84;61.83;101177.63;2082717;28;45342;-49
2021/09/20 00:50:41;;;;;;;;;0.67;0.67;;;;;19.85;62.11;101173.09;2091024;28;48141;-47
2021/09/20 00:51:42;;;;;;;;;2.00;1.00;;;;;19.85;61.87;101173.97;2091079;28;47544;-52
2021/09/20 00:52:42;;;;;;;;;1.67;1.67;;;;;19.85;61.97;101170.41;2090684;28;47962;-51
2021/09/20 00:53:43;;;;;;;;;0.67;0.67;;;;;19.84;61.15;101168.66;2091267;28;48073;-50
2021/09/20 00:54:43;;;;;;;;;0.67;0.67;;;;;19.81;61.09;101180.44;2094539;28;47047;-51
2021/09/20 00:55:44;;;;;;;;;0.33;0.00;;;;;19.78;61.57;101171.66;2091520;28;47578;-51
2021/09/20 00:56:45;;;;;;;;;1.00;1.00;;;;;19.76;61.33;101169.06;2092205;28;47249;-51
2021/09/20 00:57:48;;;;;;;;;0.00;0.00;;;;;19.76;61.52;101174.44;2091731;28;47190;-51
2021/09/20 00:58:49;;;;;;;;;2.75;1.00;;;;;19.75;61.44;101179.91;2092086;28;48187;-50
2021/09/20 00:59:49;;;;;;;;;1.00;0.00;;;;;19.74;61.53;101170.97;2091576;28;46201;-49
2021/09/20 01:00:50;;;;;;;;;0.67;0.67;;;;;19.74;61.54;101173.66;2091722;28;47361;-53
2021/09/20 01:01:51;;;;;;;;;0.00;0.00;;;;;19.74;61.93;101170.09;2090658;28;48102;-51
2021/09/20 01:02:51;;;;;;;;;0.33;0.33;;;;;19.73;61.84;101169.22;2091618;28;48291;-52
2021/09/20 01:03:51;;;;;;;;;1.00;1.00;;;;;19.73;61.83;101173.75;2091492;28;47359;-52
2021/09/20 01:04:52;;;;;;;;;1.00;1.00;;;;;19.72;61.47;101175.56;2091167;28;48094;-51
2021/09/20 01:05:52;;;;;;;;;1.00;1.00;;;;;19.71;60.80;101170.28;2091318;28;46975;-52
2021/09/20 01:06:53;;;;;;;;;1.00;1.00;;;;;19.69;61.27;101178.41;2091641;28;47177;-49
2021/09/20 01:07:53;;;;;;;;;4.00;2.00;;;;;19.68;61.77;101176.66;2091522;28;47058;-52
2021/09/20 01:08:54;;;;;;;;;0.00;0.00;;;;;19.67;61.57;101174.91;2092189;28;46536;-53
2021/09/20 01:09:55;;;;;;;;;0.00;0.00;;;;;19.67;61.49;101175.78;2091262;28;47150;-51
2021/09/20 01:10:55;;;;;;;;;1.33;1.33;;;;;19.68;61.79;101173.97;2089224;28;47225;-50
2021/09/20 01:11:56;;;;;;;;;1.00;1.00;;;;;19.69;61.78;101183.78;2087832;28;46727;-50
2021/09/20 01:12:57;;;;;;;;;1.00;1.00;;;;;19.69;61.22;101181.09;2083229;28;45013;-53
2021/09/20 01:13:58;;;;;;;;;0.33;0.33;;;;;19.69;61.87;101181.09;2091306;28;47108;-51
2021/09/20 01:14:59;;;;;;;;;2.25;1.25;;;;;19.68;61.56;101180.22;2090758;28;47158;-51
2021/09/20 01:16:00;;;;;;;;;0.75;0.75;;;;;19.66;61.09;101176.75;2087961;28;47272;-51
2021/09/20 01:17:00;;;;;;;;;1.33;1.33;;;;;19.62;61.37;101177.88;2091259;28;48162;-47
2021/09/20 01:18:01;;;;;;;;;1.33;0.00;;;;;19.59;61.07;101171.78;2091080;28;47747;-53
2021/09/20 01:19:01;;;;;;;;;2.00;2.00;;;;;19.55;61.33;101168.34;2091249;28;47155;-50
2021/09/20 01:20:04;;;;;;;;;4.00;4.00;;;;;19.55;61.79;101170.16;2091423;28;46880;-50
2021/09/20 01:21:04;;;;;;;;;1.00;1.00;;;;;19.52;61.43;101173.88;2083290;28;47692;-51
2021/09/20 01:22:14;;;;;;;;;1.50;1.50;;;;;19.51;61.04;101173.94;2090869;28;47350;-52
2021/09/20 01:23:15;;;;;;;;;0.75;0.75;;;;;19.48;61.87;101174.13;2092413;28;48042;-51
2021/09/20 01:24:15;;;;;;;;;1.00;1.00;;;;;19.47;62.11;101177.75;2091556;28;48249;-52
2021/09/20 01:25:16;;;;;;;;;1.00;0.00;;;;;19.47;61.54;101181.31;2091784;28;47994;-51
2021/09/20 01:26:16;;;;;;;;;1.00;1.00;;;;;19.46;62.08;101171.50;2091675;28;45242;-51
2021/09/20 01:27:18;;;;;;;;;1.00;1.00;;;;;19.47;61.92;101170.56;2088645;28;47018;-47
2021/09/20 01:28:18;;;;;;;;;2.00;1.00;;;;;19.48;62.09;101174.13;2086749;28;47516;-52
2021/09/20 01:29:23;;;;;;;;;1.00;1.00;;;;;19.48;62.24;101166.91;2087794;28;47036;-52
2021/09/20 01:30:24;;;;;;;;;1.00;1.00;;;;;19.50;62.58;101167.69;2089576;28;47769;-47
2021/09/20 01:31:25;;;;;;;;;1.50;1.50;;;;;19.52;62.46;101173.88;2091238;28;47781;-51
2021/09/20 01:32:26;;;;;;;;;1.00;0.67;;;;;19.53;62.22;101175.59;2091818;28;47301;-51
2021/09/20 01:33:26;;;;;;;;;1.33;1.33;;;;;19.54;62.65;101174.66;2091004;28;45308;-49
2021/09/20 01:34:27;;;;;;;;;1.00;1.00;;;;;19.55;62.31;101173.72;2090815;28;47278;-49
2021/09/20 01:35:29;;;;;;;;;3.25;2.00;;;;;19.55;61.73;101165.66;2087272;28;48508;-48
2021/09/20 01:36:30;;;;;;;;;1.00;1.00;;;;;19.54;62.08;101174.66;2090878;28;47392;-50
2021/09/20 01:37:30;;;;;;;;;2.00;1.00;;;;;19.54;62.50;101168.41;2091908;28;48100;-50
2021/09/20 01:38:31;;;;;;;;;1.00;1.00;;;;;19.54;62.38;101171.97;2091127;28;48034;-51
2021/09/20 01:39:35;;;;;;;;;3.00;1.33;;;;;19.56;62.72;101172.78;2091603;28;48354;-48
2021/09/20 01:40:35;;;;;;;;;1.75;1.00;;;;;19.58;62.58;101167.34;2090488;28;47942;-49
2021/09/20 01:41:36;;;;;;;;;1.33;0.67;;;;;19.58;62.73;101162.84;2086426;28;48410;-51
2021/09/20 01:42:37;;;;;;;;;1.00;1.00;;;;;19.60;62.61;101168.13;2090930;28;48037;-49
2021/09/20 01:43:38;;;;;;;;;3.00;1.00;;;;;19.61;62.63;101169.88;2091780;28;48157;-50
2021/09/20 01:44:38;;;;;;;;;1.33;1.33;;;;;19.61;62.25;101159.97;2091769;28;47329;-49
2021/09/20 01:45:39;;;;;;;;;2.00;2.00;;;;;19.61;62.41;101165.34;2090972;28;47369;-50
2021/09/20 01:46:44;;;;;;;;;2.00;1.00;;;;;19.61;62.16;101167.19;2099533;28;46236;-51
2021/09/20 01:47:45;;;;;;;;;2.00;2.00;;;;;19.61;62.09;101161.78;2090516;28;48382;-49
2021/09/20 01:48:46;;;;;;;;;1.50;1.50;;;;;19.61;62.32;101162.66;2089002;28;47251;-52
2021/09/20 01:49:46;;;;;;;;;1.00;1.00;;;;;19.62;62.16;101158.16;2089952;28;47985;-49
2021/09/20 01:50:47;;;;;;;;;2.33;2.33;;;;;19.63;62.64;101165.28;2090776;28;45402;-48
2021/09/20 01:51:48;;;;;;;;;3.00;3.00;;;;;19.64;62.61;101164.31;2090994;28;47274;-51
2021/09/20 01:52:49;;;;;;;;;2.33;2.33;;;;;19.65;62.84;101166.94;2090864;28;48304;-48
2021/09/20 01:53:49;;;;;;;;;2.00;2.00;;;;;19.65;61.99;101168.75;2087229;28;47237;-51
2021/09/20 01:54:50;;;;;;;;;5.00;4.00;;;;;19.64;62.45;101158.94;2091093;28;45359;-47
2021/09/20 01:55:51;;;;;;;;;3.00;3.00;;;;;19.64;62.56;101161.63;2091614;28;47274;-51
2021/09/20 01:56:52;;;;;;;;;3.67;3.67;;;;;19.64;61.70;101162.50;2087758;28;46445;-51
2021/09/20 01:57:52;;;;;;;;;3.75;3.75;;;;;19.61;61.83;101165.34;2083900;28;47461;-49
2021/09/20 01:58:53;;;;;;;;;2.00;2.00;;;;;19.58;61.99;101159.28;2083550;28;48063;-51
2021/09/20 01:59:53;;;;;;;;;3.00;3.00;;;;;19.57;61.83;101162.91;2091079;28;46872;-49
2021/09/20 02:00:53;;;;;;;;;2.33;2.33;;;;;19.55;61.80;101157.59;2082747;28;47545;-48
2021/09/20 02:01:54;;;;;;;;;6.00;3.67;;;;;19.54;62.25;101158.50;2086955;28;47125;-46
2021/09/20 02:02:54;;;;;;;;;2.33;2.33;;;;;19.56;62.47;101163.84;2089900;28;47364;-46
2021/09/20 02:03:55;;;;;;;;;2.67;2.67;;;;;19.55;61.87;101160.28;2091519;28;47207;-48
2021/09/20 02:04:56;;;;;;;;;3.00;3.00;;;;;19.55;62.11;101156.72;2088629;28;47344;-50
2021/09/20 02:05:56;;;;;;;;;2.00;2.00;;;;;19.54;62.14;101154.94;2090611;28;48070;-48
2021/09/20 02:06:57;;;;;;;;;2.00;2.00;;;;;19.55;62.65;101152.19;2087861;28;46224;-52
2021/09/20 02:07:57;;;;;;;;;2.00;2.00;;;;;19.55;62.61;101157.59;2091427;28;46519;-49
2021/09/20 02:08:58;;;;;;;;;1.00;1.00;;;;;19.56;62.38;101159.31;2091968;28;45014;-50
2021/09/20 02:09:58;;;;;;;;;3.67;2.00;;;;;19.56;62.54;101148.56;2088172;28;47843;-49
2021/09/20 02:10:59;;;;;;;;;0.67;0.67;;;;;19.57;62.57;101150.31;2089432;28;47313;-51
2021/09/20 02:12:00;;;;;;;;;4.00;3.67;;;;;19.57;62.63;101150.31;2090876;28;48046;-49
2021/09/20 02:13:00;;;;;;;;;5.25;3.25;;;;;19.58;62.65;101152.06;2091316;28;47976;-51
2021/09/20 02:14:01;;;;;;;;;2.33;2.33;;;;;19.58;62.81;101157.44;2088560;28;47897;-48
2021/09/20 02:15:04;;;;;;;;;1.67;1.67;;;;;19.59;62.68;101150.25;2086111;28;47267;-47
2021/09/20 02:16:05;;;;;;;;;2.50;2.50;;;;;19.59;62.84;101143.03;2088355;28;47095;-52
2021/09/20 02:17:05;;;;;;;;;2.33;2.33;;;;;19.61;62.97;101142.94;2084056;28;48140;-51
2021/09/20 02:18:06;;;;;;;;;4.67;2.00;;;;;19.63;62.47;101150.00;2088147;28;48128;-51
2021/09/20 02:19:06;;;;;;;;;2.00;2.00;;;;;19.62;62.73;101145.56;2090657;28;48137;-51
2021/09/20 02:20:08;;;;;;;;;2.00;1.00;;;;;19.62;62.55;101148.25;2090919;28;46295;-49
2021/09/20 02:21:10;;;;;;;;;2.00;2.00;;;;;19.62;63.02;101148.25;2091482;28;47001;-51
2021/09/20 02:22:11;;;;;;;;;2.00;2.00;;;;;19.63;62.87;101144.59;2088097;28;47376;-51
2021/09/20 02:23:12;;;;;;;;;3.00;3.00;;;;;19.62;62.92;101140.16;2094434;28;48224;-51
2021/09/20 02:24:13;;;;;;;;;2.00;2.00;;;;;19.63;63.17;101144.59;2088069;28;47716;-48
2021/09/20 02:25:13;;;;;;;;;3.33;3.33;;;;;19.64;62.87;101142.78;2087618;28;47200;-48
2021/09/20 02:26:14;;;;;;;;;2.00;2.00;;;;;19.65;63.38;101139.13;2088289;28;47604;-50
2021/09/20 02:27:14;;;;;;;;;3.00;1.00;;;;;19.64;62.46;101140.97;2089201;28;46028;-51
2021/09/20 02:28:15;;;;;;;;;2.33;2.33;;;;;19.63;62.16;101138.34;2085924;28;46150;-49
2021/09/20 02:29:15;;;;;;;;;2.00;1.00;;;;;19.61;62.39;101137.56;2098874;28;48212;-52
2021/09/20 02:30:16;;;;;;;;;2.00;2.00;;;;;19.59;62.26;101142.16;2088612;28;47346;-50
2021/09/20 02:31:17;;;;;;;;;1.00;1.00;;;;;19.58;62.09;101143.97;2090358;28;48051;-51
2021/09/20 02:32:18;;;;;;;;;1.50;1.50;;;;;19.57;62.17;101136.00;2088265;28;48033;-50
2021/09/20 02:33:18;;;;;;;;;1.33;1.33;;;;;19.54;62.19;101134.28;2084399;28;48437;-48
2021/09/20 02:34:19;;;;;;;;;1.67;1.67;;;;;19.54;62.36;101139.66;2085600;28;48182;-51
2021/09/20 02:35:19;;;;;;;;;1.67;1.67;;;;;19.54;62.36;101141.47;2090220;28;47509;-49
2021/09/20 02:36:20;;;;;;;;;1.67;1.67;;;;;19.54;62.92;101138.78;2082673;28;48267;-49
2021/09/20 02:37:20;;;;;;;;;2.33;1.00;;;;;19.54;62.33;101136.09;2084675;28;48171;-51
2021/09/20 02:38:21;;;;;;;;;3.00;3.00;;;;;19.53;62.18;101139.75;2090836;28;47377;-52
2021/09/20 02:39:21;;;;;;;;;1.00;1.00;;;;;19.51;62.05;101142.50;2089836;28;45941;-52
2021/09/20 02:40:22;;;;;;;;;2.00;2.00;;;;;19.49;62.26;101143.56;2091611;28;47416;-51
2021/09/20 02:41:22;;;;;;;;;0.67;0.67;;;;;19.44;62.06;101143.81;2091023;28;48627;-51
2021/09/20 02:42:23;;;;;;;;;2.00;2.00;;;;;19.41;62.37;101135.84;2090759;28;47477;-47
2021/09/20 02:43:24;;;;;;;;;2.33;2.33;;;;;19.40;62.05;101144.88;2090438;28;47148;-53
2021/09/20 02:44:25;;;;;;;;;3.00;2.75;;;;;19.38;62.16;101139.59;2091079;28;47446;-50
2021/09/20 02:45:25;;;;;;;;;2.00;2.00;;;;;19.37;61.92;101145.91;2088696;28;47202;-50
2021/09/20 02:46:26;;;;;;;;;4.00;4.00;;;;;19.34;62.26;101140.72;2087518;28;47135;-52
2021/09/20 02:47:26;;;;;;;;;1.00;1.00;;;;;19.34;62.67;101145.22;2089489;28;48063;-51
2021/09/20 02:48:27;;;;;;;;;1.67;1.67;;;;;19.33;62.25;101141.66;2090864;28;47333;-49
2021/09/20 02:49:27;;;;;;;;;2.00;2.00;;;;;19.31;62.38;101145.34;2090487;28;47292;-49
2021/09/20 02:50:27;;;;;;;;;4.00;4.00;;;;;19.30;62.44;101144.47;2089438;28;48111;-51
2021/09/20 02:51:28;;;;;;;;;2.00;2.00;;;;;19.28;62.53;101138.31;2085532;28;47325;-50
2021/09/20 02:52:29;;;;;;;;;3.00;3.00;;;;;19.27;62.58;101138.41;2089949;28;47763;-48
2021/09/20 02:53:31;;;;;;;;;3.00;3.00;;;;;19.26;62.43;101137.53;2089118;28;48292;-52
2021/09/20 02:54:31;;;;;;;;;1.75;1.75;;;;;19.27;62.82;101133.88;2089489;28;48322;-51
2021/09/20 02:55:32;;;;;;;;;2.67;2.67;;;;;19.28;62.72;101135.63;2090066;28;46315;-48
2021/09/20 02:56:33;;;;;;;;;1.67;1.67;;;;;19.28;62.71;101141.00;2082071;28;47069;-50
2021/09/20 02:57:34;;;;;;;;;3.00;3.00;;;;;19.29;62.56;101141.88;2090136;28;47218;-53
2021/09/20 02:58:35;;;;;;;;;2.50;2.50;;;;;19.28;62.48;101142.81;2089451;28;45358;-53
2021/09/20 02:59:35;;;;;;;;;2.00;2.00;;;;;19.28;63.01;101140.13;2085227;28;47390;-52
2021/09/20 03:00:37;;;;;;;;;2.00;2.00;;;;;19.29;63.14;101142.75;2083048;28;47053;-47
2021/09/20 03:01:37;;;;;;;;;3.75;3.00;;;;;19.30;62.98;101139.09;2088392;28;48137;-48
2021/09/20 03:02:38;;;;;;;;;3.67;3.67;;;;;19.32;63.17;101137.22;2084065;28;47380;-51
2021/09/20 03:03:38;;;;;;;;;2.67;2.67;;;;;19.33;63.23;101144.34;2090264;28;48056;-51
2021/09/20 03:04:39;;;;;;;;;1.67;1.67;;;;;19.36;63.43;101146.00;2082220;28;46765;-51
2021/09/20 03:05:40;;;;;;;;;1.67;1.33;;;;;19.36;63.10;101141.50;2082289;28;46894;-51
2021/09/20 03:06:40;;;;;;;;;3.67;3.33;;;;;19.37;63.08;101140.53;2088905;28;47900;-51
2021/09/20 03:07:40;;;;;;;;;2.67;2.67;;;;;19.38;63.51;101150.34;2078161;28;45223;-52
2021/09/20 03:08:41;;;;;;;;;2.00;2.00;;;;;19.38;63.71;101142.28;2090656;28;48239;-52
2021/09/20 03:09:42;;;;;;;;;1.00;1.00;;;;;19.40;63.45;101142.19;2089600;28;48220;-49
2021/09/20 03:10:42;;;;;;;;;4.67;3.67;;;;;19.40;63.03;101143.06;2084414;28;47346;-52
2021/09/20 03:11:43;;;;;;;;;3.33;3.33;;;;;19.41;63.00;101139.41;2090113;28;47308;-50
2021/09/20 03:12:43;;;;;;;;;3.33;2.33;;;;;19.42;63.03;101137.59;2087347;28;47271;-50
2021/09/20 03:13:44;;;;;;;;;2.00;1.67;;;;;19.42;63.07;101137.59;2083382;28;47380;-51
2021/09/20 03:14:44;;;;;;;;;2.33;2.33;;;;;19.42;63.37;101138.47;2089935;28;45341;-52
2021/09/20 03:15:45;;;;;;;;;2.33;2.33;;;;;19.43;62.69;101144.72;2091000;28;48117;-51
2021/09/20 03:16:45;;;;;;;;;2.00;2.00;;;;;19.44;62.29;101140.22;2090542;28;46920;-50
2021/09/20 03:17:46;;;;;;;;;2.33;2.33;;;;;19.42;62.77;101137.59;2073706;28;47111;-52
2021/09/20 03:18:46;;;;;;;;;4.33;4.00;;;;;19.40;63.04;101140.38;2082575;28;48240;-51
2021/09/20 03:19:47;;;;;;;;;4.00;1.33;;;;;19.40;63.06;101140.38;2090013;28;47159;-50
2021/09/20 03:20:47;;;;;;;;;4.00;4.00;;;;;19.40;62.99;101137.69;2087567;28;45388;-50
2021/09/20 03:21:48;;;;;;;;;2.00;2.00;;;;;19.41;62.92;101136.72;2083095;28;47086;-48
2021/09/20 03:22:48;;;;;;;;;2.00;2.00;;;;;19.41;62.80;101133.16;2093256;28;47263;-49
2021/09/20 03:23:49;;;;;;;;;3.33;3.33;;;;;19.43;63.08;101139.34;2085889;28;48068;-54
2021/09/20 03:24:50;;;;;;;;;3.00;3.00;;;;;19.43;63.22;101142.03;2091128;28;45281;-53
2021/09/20 03:25:50;;;;;;;;;4.00;4.00;;;;;19.43;63.27;101147.41;2092019;28;47401;-53
2021/09/20 03:26:52;;;;;;;;;5.00;5.00;;;;;19.42;63.17;101143.84;2094550;28;48176;-52
2021/09/20 03:27:52;;;;;;;;;4.25;4.25;;;;;19.41;62.85;101141.25;2084736;28;48234;-52
2021/09/20 03:28:53;;;;;;;;;4.67;4.00;;;;;19.40;63.00;101143.06;2091402;28;45357;-52
2021/09/20 03:29:53;;;;;;;;;4.00;4.00;;;;;19.40;63.40;101142.19;2086215;28;46004;-50
2021/09/20 03:30:54;;;;;;;;;3.33;3.33;;;;;19.40;63.46;101147.56;2092566;28;47717;-51
2021/09/20 03:31:54;;;;;;;;;5.33;2.67;;;;;19.40;63.27;101144.88;2090019;28;47219;-51
2021/09/20 03:32:55;;;;;;;;;4.00;4.00;;;;;19.40;63.47;101151.13;2085605;28;47239;-50
2021/09/20 03:33:55;;;;;;;;;4.00;4.00;;;;;19.41;63.32;101147.50;2092089;28;47114;-51
2021/09/20 03:34:56;;;;;;;;;3.67;3.33;;;;;19.42;63.16;101142.97;2089532;28;47136;-52
2021/09/20 03:35:56;;;;;;;;;2.67;2.67;;;;;19.41;63.09;101150.19;2084196;28;47695;-54
2021/09/20 03:36:57;;;;;;;;;4.33;4.33;;;;;19.41;63.54;101144.81;2090708;28;47119;-53
2021/09/20 03:37:57;;;;;;;;;5.00;4.67;;;;;19.41;63.58;101147.50;2092041;28;47243;-52
2021/09/20 03:38:58;;;;;;;;;3.67;3.67;;;;;19.41;63.67;101144.81;2091846;28;48091;-51
2021/09/20 03:39:58;;;;;;;;;6.00;4.00;;;;;19.42;63.30;101151.94;2083501;28;47106;-51
2021/09/20 03:40:59;;;;;;;;;4.00;4.00;;;;;19.41;63.57;101146.63;2085258;28;48312;-50
2021/09/20 03:41:59;;;;;;;;;4.00;3.00;;;;;19.42;63.49;101151.06;2091646;28;47820;-53
2021/09/20 03:43:00;;;;;;;;;4.33;4.33;;;;;19.43;63.84;101155.50;2083426;28;47149;-52
2021/09/20 03:44:00;;;;;;;;;3.67;3.67;;;;;19.44;63.57;101149.19;2091936;28;47135;-53
2021/09/20 03:45:01;;;;;;;;;2.00;2.00;;;;;19.45;63.87;101150.94;2092477;28;47388;-52
2021/09/20 03:46:01;;;;;;;;;4.00;4.00;;;;;19.46;63.87;101146.41;2093919;28;47029;-51
2021/09/20 03:47:02;;;;;;;;;6.00;4.00;;;;;19.46;63.86;101147.28;2091575;28;48148;-50
2021/09/20 03:48:03;;;;;;;;;3.00;3.00;;;;;19.48;63.98;101153.44;2090334;28;48152;-52
2021/09/20 03:49:04;;;;;;;;;4.00;3.00;;;;;19.49;64.00;101147.13;2091332;28;48084;-48
2021/09/20 03:50:06;;;;;;;;;4.33;4.33;;;;;19.51;63.90;101153.28;2089200;28;49958;-50
2021/09/20 03:51:07;;;;;;;;;2.50;2.50;;;;;19.49;63.26;101146.25;2092299;28;47203;-50
2021/09/20 03:52:07;;;;;;;;;3.00;3.00;;;;;19.49;63.34;101144.41;2092701;28;48218;-50
2021/09/20 03:53:08;;;;;;;;;4.00;4.00;;;;;19.49;63.68;101139.03;2089095;28;47142;-53
2021/09/20 03:54:08;;;;;;;;;4.00;4.00;;;;;19.50;63.72;101145.28;2085142;28;47099;-51
2021/09/20 03:55:10;;;;;;;;;4.00;3.67;;;;;19.50;63.62;101142.59;2091463;28;47748;-51
2021/09/20 03:56:11;;;;;;;;;3.75;3.75;;;;;19.51;63.51;101147.03;2092668;28;47166;-51
2021/09/20 03:57:11;;;;;;;;;4.00;3.00;;;;;19.51;63.59;101142.50;2084018;28;47678;-50
2021/09/20 03:58:12;;;;;;;;;4.00;4.00;;;;;19.52;63.52;101146.06;2091340;28;47326;-52
2021/09/20 03:59:12;;;;;;;;;6.00;5.00;;;;;19.53;63.71;101142.44;2085776;28;48027;-51
2021/09/20 04:00:14;;;;;;;;;4.00;4.00;;;;;19.52;63.99;101146.94;2092059;28;47874;-49
2021/09/20 04:01:15;;;;;;;;;4.00;4.00;;;;;19.53;63.60;101145.13;2088632;28;47651;-53
2021/09/20 04:02:15;;;;;;;;;5.67;5.67;;;;;19.53;63.54;101153.19;2092525;28;47405;-52
2021/09/20 04:03:16;;;;;;;;;6.00;6.00;;;;;19.52;63.93;101146.94;2091185;28;47449;-52
2021/09/20 04:04:16;;;;;;;;;1.33;1.33;;;;;19.53;63.99;101148.69;2087957;28;48201;-51
2021/09/20 04:05:17;;;;;;;;;6.33;4.33;;;;;19.55;63.83;101148.63;2092288;28;47405;-47
2021/09/20 04:06:17;;;;;;;;;4.67;4.00;;;;;19.55;63.97;101146.81;2088340;28;48044;-51
2021/09/20 04:07:18;;;;;;;;;4.00;3.00;;;;;19.55;63.64;101151.31;2090673;28;47582;-51
2021/09/20 04:08:18;;;;;;;;;3.67;3.00;;;;;19.55;63.83;101144.13;2092457;28;48260;-50
2021/09/20 04:09:20;;;;;;;;;4.33;4.33;;;;;19.55;64.07;101151.31;2089057;28;46950;-53
2021/09/20 04:10:21;;;;;;;;;3.25;3.25;;;;;19.54;64.00;101158.50;2084710;28;48229;-51
2021/09/20 04:11:21;;;;;;;;;4.00;4.00;;;;;19.55;63.86;101152.19;2092040;28;47239;-51
2021/09/20 04:12:22;;;;;;;;;4.00;2.67;;;;;19.57;63.61;101144.06;2088013;28;47993;-52
2021/09/20 04:13:23;;;;;;;;;3.00;3.00;;;;;19.57;63.79;101152.16;2084998;28;47118;-50
2021/09/20 04:14:23;;;;;;;;;4.50;4.00;;;;;19.57;63.60;101158.41;2090855;28;47340;-50
2021/09/20 04:15:24;;;;;;;;;6.00;5.00;;;;;19.57;63.62;101150.31;2091916;28;47675;-48
2021/09/20 04:16:24;;;;;;;;;4.33;4.33;;;;;19.57;63.62;101153.00;2091591;28;47232;-53
2021/09/20 04:17:25;;;;;;;;;4.00;4.00;;;;;19.55;63.55;101149.50;2088623;28;47765;-52
2021/09/20 04:18:27;;;;;;;;;4.00;3.33;;;;;19.54;63.38;101153.13;2084001;28;47238;-52
2021/09/20 04:19:28;;;;;;;;;2.75;2.75;;;;;19.54;63.75;101154.94;2083512;28;47342;-51
2021/09/20 04:20:28;;;;;;;;;4.00;4.00;;;;;19.54;63.61;101154.94;2083020;28;46832;-52
2021/09/20 04:21:29;;;;;;;;;4.00;4.00;;;;;19.54;63.82;101157.63;2083750;28;47424;-53
2021/09/20 04:22:30;;;;;;;;;5.67;5.67;;;;;19.54;63.68;101158.50;2092909;28;47018;-52
2021/09/20 04:23:30;;;;;;;;;4.33;4.00;;;;;19.54;63.40;101150.41;2091594;28;46981;-52
2021/09/20 04:24:31;;;;;;;;;5.33;4.00;;;;;19.52;63.60;101159.53;2083558;28;47288;-51
2021/09/20 04:25:31;;;;;;;;;4.00;4.00;;;;;19.52;63.61;101151.47;2082805;28;47103;-50
2021/09/20 04:26:32;;;;;;;;;5.00;4.33;;;;;19.50;63.29;101159.63;2090001;28;47690;-50
2021/09/20 04:27:33;;;;;;;;;4.33;4.33;;;;;19.48;63.92;101158.84;2092312;28;48659;-49
2021/09/20 04:28:33;;;;;;;;;6.00;4.33;;;;;19.49;63.83;101154.31;2087690;28;46900;-52
2021/09/20 04:29:34;;;;;;;;;6.67;5.00;;;;;19.46;63.76;101157.19;2083762;28;45513;-49
2021/09/20 04:30:34;;;;;;;;;4.00;4.00;;;;;19.47;63.60;101156.22;2084507;28;47074;-50
2021/09/20 04:31:35;;;;;;;;;4.33;4.33;;;;;19.47;63.42;101157.09;2091604;28;48733;-51
2021/09/20 04:32:35;;;;;;;;;5.33;5.33;;;;;19.48;64.17;101161.53;2083800;28;45578;-50
2021/09/20 04:33:36;;;;;;;;;4.00;4.00;;;;;19.49;63.81;101159.69;2092018;28;47518;-49
2021/09/20 04:34:36;;;;;;;;;5.00;5.00;;;;;19.49;63.90;101154.31;2092034;28;47129;-51
2021/09/20 04:35:37;;;;;;;;;3.67;3.67;;;;;19.50;64.08;101156.06;2092275;28;48365;-50
2021/09/20 04:36:38;;;;;;;;;6.00;5.33;;;;;19.50;63.64;101150.69;2087892;28;46950;-51
2021/09/20 04:37:38;;;;;;;;;4.00;4.00;;;;;19.50;63.71;101153.38;2092291;28;47402;-48
2021/09/20 04:38:39;;;;;;;;;4.25;4.25;;;;;19.50;63.79;101156.06;2092238;28;48362;-51
2021/09/20 04:39:40;;;;;;;;;5.00;4.00;;;;;19.50;63.48;101156.06;2087189;28;47304;-50
2021/09/20 04:40:41;;;;;;;;;5.33;5.33;;;;;19.51;63.85;101155.97;2083424;28;47539;-48
2021/09/20 04:41:41;;;;;;;;;5.50;5.50;;;;;19.50;63.67;101151.53;2088387;28;48335;-49